sensor_id;sensor_type;location;lat;lon;timestamp;pressure;altitude;pressure_sealevel;temperature;humidity
55460;BME280;41326;45.302;-122.946;2022-08-21T00:00:31;100799.79;;;22.06;61.59
55460;BME280;41326;45.302;-122.946;2022-08-21T00:03:05;100799.77;;;21.90;60.14
55460;BME280;41326;45.302;-122.946;2022-08-21T00:05:31;100795.99;;;21.66;59.67
55460;BME280;41326;45.302;-122.946;2022-08-21T00:08:01;100793.73;;;21.49;59.76
55460;BME280;41326;45.302;-122.946;2022-08-21T00:10:31;100795.72;;;21.37;58.48
55460;BME280;41326;45.302;-122.946;2022-08-21T00:13:01;100794.76;;;21.25;59.07
55460;BME280;41326;45.302;-122.946;2022-08-21T00:15:34;100790.75;;;21.11;58.49
55460;BME280;41326;45.302;-122.946;2022-08-21T00:18:02;100783.33;;;21.05;57.56
55460;BME280;41326;45.302;-122.946;2022-08-21T00:20:33;100785.18;;;20.94;57.76
55460;BME280;41326;45.302;-122.946;2022-08-21T00:23:03;100783.63;;;20.93;60.59
55460;BME280;41326;45.302;-122.946;2022-08-21T00:25:33;100779.49;;;21.28;61.12
55460;BME280;41326;45.302;-122.946;2022-08-21T00:28:05;100779.90;;;21.57;58.22
55460;BME280;41326;45.302;-122.946;2022-08-21T00:30:35;100774.52;;;21.65;56.03
55460;BME280;41326;45.302;-122.946;2022-08-21T00:33:05;100774.85;;;21.78;56.03
55460;BME280;41326;45.302;-122.946;2022-08-21T00:35:38;100773.81;;;21.82;52.79
55460;BME280;41326;45.302;-122.946;2022-08-21T00:38:05;100773.30;;;21.67;52.73
55460;BME280;41326;45.302;-122.946;2022-08-21T00:40:40;100773.12;;;21.52;57.75
55460;BME280;41326;45.302;-122.946;2022-08-21T00:43:07;100771.58;;;21.62;58.67
55460;BME280;41326;45.302;-122.946;2022-08-21T00:45:37;100770.72;;;21.80;56.78
55460;BME280;41326;45.302;-122.946;2022-08-21T00:48:06;100768.73;;;21.89;56.26
55460;BME280;41326;45.302;-122.946;2022-08-21T00:50:38;100764.16;;;22.00;56.35
55460;BME280;41326;45.302;-122.946;2022-08-21T00:53:07;100766.82;;;21.97;51.87
55460;BME280;41326;45.302;-122.946;2022-08-21T00:55:38;100772.82;;;21.72;56.09
55460;BME280;41326;45.302;-122.946;2022-08-21T00:58:08;100771.69;;;21.76;58.08
55460;BME280;41326;45.302;-122.946;2022-08-21T01:00:40;100772.86;;;21.89;58.67
55460;BME280;41326;45.302;-122.946;2022-08-21T01:03:12;100769.35;;;22.01;57.97
55460;BME280;41326;45.302;-122.946;2022-08-21T01:05:38;100768.71;;;22.09;56.30
55460;BME280;41326;45.302;-122.946;2022-08-21T01:08:09;100767.84;;;22.13;53.39
55460;BME280;41326;45.302;-122.946;2022-08-21T01:10:39;100769.67;;;22.10;51.35
55460;BME280;41326;45.302;-122.946;2022-08-21T01:13:10;100776.24;;;21.86;51.06
55460;BME280;41326;45.302;-122.946;2022-08-21T01:15:42;100773.67;;;21.64;56.74
55460;BME280;41326;45.302;-122.946;2022-08-21T01:18:11;100772.81;;;21.72;57.99
55460;BME280;41326;45.302;-122.946;2022-08-21T01:20:42;100771.84;;;21.90;58.19
55460;BME280;41326;45.302;-122.946;2022-08-21T01:23:11;100769.30;;;22.05;56.55
55460;BME280;41326;45.302;-122.946;2022-08-21T01:25:41;100767.87;;;22.14;54.72
55460;BME280;41326;45.302;-122.946;2022-08-21T01:28:14;100764.76;;;22.19;54.85
55460;BME280;41326;45.302;-122.946;2022-08-21T01:30:42;100766.11;;;22.14;51.64
55460;BME280;41326;45.302;-122.946;2022-08-21T01:33:11;100764.15;;;21.93;54.65
55460;BME280;41326;45.302;-122.946;2022-08-21T01:35:41;100766.41;;;21.91;56.79
55460;BME280;41326;45.302;-122.946;2022-08-21T01:38:12;100763.02;;;22.01;57.25
55460;BME280;41326;45.302;-122.946;2022-08-21T01:40:42;100758.29;;;22.12;57.40
55460;BME280;41326;45.302;-122.946;2022-08-21T01:43:12;100758.41;;;22.18;56.09
55460;BME280;41326;45.302;-122.946;2022-08-21T01:45:43;100759.07;;;22.23;54.18
55460;BME280;41326;45.302;-122.946;2022-08-21T01:48:13;100759.82;;;22.23;53.18
55460;BME280;41326;45.302;-122.946;2022-08-21T01:50:44;100757.96;;;22.17;52.06
55460;BME280;41326;45.302;-122.946;2022-08-21T01:53:14;100757.51;;;21.91;52.36
55460;BME280;41326;45.302;-122.946;2022-08-21T01:55:44;100759.54;;;21.83;53.59
55460;BME280;41326;45.302;-122.946;2022-08-21T01:58:15;100759.38;;;21.84;56.14
55460;BME280;41326;45.302;-122.946;2022-08-21T02:00:45;100754.88;;;21.91;57.13
55460;BME280;41326;45.302;-122.946;2022-08-21T02:03:15;100755.92;;;22.04;57.40
55460;BME280;41326;45.302;-122.946;2022-08-21T02:05:46;100754.69;;;22.16;57.68
55460;BME280;41326;45.302;-122.946;2022-08-21T02:08:16;100755.89;;;22.31;55.62
55460;BME280;41326;45.302;-122.946;2022-08-21T02:10:47;100757.57;;;22.41;53.71
55460;BME280;41326;45.302;-122.946;2022-08-21T02:13:17;100759.05;;;22.42;51.08
55460;BME280;41326;45.302;-122.946;2022-08-21T02:15:47;100759.20;;;22.25;49.03
55460;BME280;41326;45.302;-122.946;2022-08-21T02:18:18;100761.83;;;22.02;51.20
55460;BME280;41326;45.302;-122.946;2022-08-21T02:20:50;100760.80;;;21.98;54.36
55460;BME280;41326;45.302;-122.946;2022-08-21T02:23:19;100759.86;;;22.07;54.90
55460;BME280;41326;45.302;-122.946;2022-08-21T02:25:49;100758.89;;;22.13;53.06
55460;BME280;41326;45.302;-122.946;2022-08-21T02:28:20;100756.07;;;22.16;51.62
55460;BME280;41326;45.302;-122.946;2022-08-21T02:30:51;100755.62;;;22.11;50.25
55460;BME280;41326;45.302;-122.946;2022-08-21T02:33:22;100753.46;;;22.06;53.69
55460;BME280;41326;45.302;-122.946;2022-08-21T02:35:52;100754.48;;;22.06;55.11
55460;BME280;41326;45.302;-122.946;2022-08-21T02:38:24;100755.50;;;22.10;55.63
55460;BME280;41326;45.302;-122.946;2022-08-21T02:40:53;100758.22;;;22.18;56.03
55460;BME280;41326;45.302;-122.946;2022-08-21T02:43:24;100760.85;;;22.22;56.73
55460;BME280;41326;45.302;-122.946;2022-08-21T02:45:54;100761.42;;;22.21;52.88
55460;BME280;41326;45.302;-122.946;2022-08-21T02:48:25;100765.28;;;22.18;52.89
55460;BME280;41326;45.302;-122.946;2022-08-21T02:50:57;100768.75;;;22.06;51.69
55460;BME280;41326;45.302;-122.946;2022-08-21T02:53:24;100771.06;;;21.86;52.59
55460;BME280;41326;45.302;-122.946;2022-08-21T02:55:56;100771.79;;;21.84;54.70
55460;BME280;41326;45.302;-122.946;2022-08-21T02:58:26;100776.51;;;21.92;55.04
55460;BME280;41326;45.302;-122.946;2022-08-21T03:00:54;100778.42;;;21.99;55.39
55460;BME280;41326;45.302;-122.946;2022-08-21T03:03:25;100778.38;;;22.07;55.64
55460;BME280;41326;45.302;-122.946;2022-08-21T03:05:55;100780.99;;;22.13;55.90
55460;BME280;41326;45.302;-122.946;2022-08-21T03:08:27;100784.69;;;22.18;53.97
55460;BME280;41326;45.302;-122.946;2022-08-21T03:10:56;100784.01;;;22.12;50.89
55460;BME280;41326;45.302;-122.946;2022-08-21T03:13:26;100783.50;;;21.96;50.66
55460;BME280;41326;45.302;-122.946;2022-08-21T03:15:56;100783.67;;;21.88;50.10
55460;BME280;41326;45.302;-122.946;2022-08-21T03:18:27;100782.44;;;21.45;50.82
55460;BME280;41326;45.302;-122.946;2022-08-21T03:20:57;100782.41;;;21.17;51.57
55460;BME280;41326;45.302;-122.946;2022-08-21T03:23:27;100782.01;;;20.92;52.01
55460;BME280;41326;45.302;-122.946;2022-08-21T03:25:57;100784.00;;;20.71;52.19
55460;BME280;41326;45.302;-122.946;2022-08-21T03:28:28;100788.27;;;20.52;51.98
55460;BME280;41326;45.302;-122.946;2022-08-21T03:30:58;100792.36;;;20.48;52.26
55460;BME280;41326;45.302;-122.946;2022-08-21T03:33:29;100794.96;;;20.50;51.70
55460;BME280;41326;45.302;-122.946;2022-08-21T03:36:03;100802.04;;;20.36;52.21
55460;BME280;41326;45.302;-122.946;2022-08-21T03:38:29;100802.17;;;20.22;52.09
55460;BME280;41326;45.302;-122.946;2022-08-21T03:40:59;100807.51;;;20.22;52.10
55460;BME280;41326;45.302;-122.946;2022-08-21T03:43:30;100811.70;;;20.11;52.45
55460;BME280;41326;45.302;-122.946;2022-08-21T03:46:01;100815.12;;;20.00;52.71
55460;BME280;41326;45.302;-122.946;2022-08-21T03:48:30;100812.95;;;19.92;52.36
55460;BME280;41326;45.302;-122.946;2022-08-21T03:51:01;100815.83;;;20.02;52.22
55460;BME280;41326;45.302;-122.946;2022-08-21T03:53:31;100817.63;;;20.02;51.45
55460;BME280;41326;45.302;-122.946;2022-08-21T03:56:01;100822.23;;;20.00;51.10
55460;BME280;41326;45.302;-122.946;2022-08-21T03:58:32;100823.13;;;19.99;51.06
55460;BME280;41326;45.302;-122.946;2022-08-21T04:01:03;100825.52;;;19.98;50.76
55460;BME280;41326;45.302;-122.946;2022-08-21T04:03:34;100829.91;;;19.92;50.69
55460;BME280;41326;45.302;-122.946;2022-08-21T04:06:02;100829.65;;;19.85;50.77
55460;BME280;41326;45.302;-122.946;2022-08-21T04:08:33;100828.54;;;19.79;50.85
55460;BME280;41326;45.302;-122.946;2022-08-21T04:11:04;100828.75;;;19.77;50.55
55460;BME280;41326;45.302;-122.946;2022-08-21T04:13:33;100831.47;;;19.80;50.39
55460;BME280;41326;45.302;-122.946;2022-08-21T04:16:03;100830.69;;;19.70;50.27
55460;BME280;41326;45.302;-122.946;2022-08-21T04:18:34;100834.21;;;19.65;50.15
55460;BME280;41326;45.302;-122.946;2022-08-21T04:21:05;100838.60;;;19.62;50.31
55460;BME280;41326;45.302;-122.946;2022-08-21T04:23:35;100839.23;;;19.60;49.86
55460;BME280;41326;45.302;-122.946;2022-08-21T04:26:05;100841.25;;;19.56;50.25
55460;BME280;41326;45.302;-122.946;2022-08-21T04:28:35;100843.85;;;19.54;49.91
55460;BME280;41326;45.302;-122.946;2022-08-21T04:31:06;100844.19;;;19.54;50.57
55460;BME280;41326;45.302;-122.946;2022-08-21T04:33:36;100843.30;;;19.48;49.79
55460;BME280;41326;45.302;-122.946;2022-08-21T04:36:07;100847.33;;;19.42;49.50
55460;BME280;41326;45.302;-122.946;2022-08-21T04:38:36;100850.07;;;19.35;49.09
55460;BME280;41326;45.302;-122.946;2022-08-21T04:41:07;100851.49;;;19.24;50.12
55460;BME280;41326;45.302;-122.946;2022-08-21T04:43:38;100853.29;;;19.26;49.79
55460;BME280;41326;45.302;-122.946;2022-08-21T04:46:08;100851.83;;;19.24;49.69
55460;BME280;41326;45.302;-122.946;2022-08-21T04:48:38;100852.10;;;19.21;50.20
55460;BME280;41326;45.302;-122.946;2022-08-21T04:51:13;100848.91;;;19.15;49.95
55460;BME280;41326;45.302;-122.946;2022-08-21T04:53:41;100851.80;;;19.14;49.79
55460;BME280;41326;45.302;-122.946;2022-08-21T04:56:12;100854.78;;;19.07;49.12
55460;BME280;41326;45.302;-122.946;2022-08-21T04:58:39;100863.68;;;19.00;49.80
55460;BME280;41326;45.302;-122.946;2022-08-21T05:01:13;100863.73;;;19.09;49.29
55460;BME280;41326;45.302;-122.946;2022-08-21T05:03:40;100864.37;;;19.10;49.74
55460;BME280;41326;45.302;-122.946;2022-08-21T05:06:11;100869.75;;;19.07;51.20
55460;BME280;41326;45.302;-122.946;2022-08-21T05:08:40;100871.28;;;19.14;53.80
55460;BME280;41326;45.302;-122.946;2022-08-21T05:11:11;100870.10;;;19.30;54.42
55460;BME280;41326;45.302;-122.946;2022-08-21T05:13:41;100871.13;;;19.43;55.73
55460;BME280;41326;45.302;-122.946;2022-08-21T05:16:11;100874.36;;;19.60;56.05
55460;BME280;41326;45.302;-122.946;2022-08-21T05:18:42;100878.39;;;19.75;56.05
55460;BME280;41326;45.302;-122.946;2022-08-21T05:21:13;100882.23;;;19.91;55.95
55460;BME280;41326;45.302;-122.946;2022-08-21T05:23:43;100882.72;;;20.04;56.04
55460;BME280;41326;45.302;-122.946;2022-08-21T05:26:13;100886.11;;;20.13;56.17
55460;BME280;41326;45.302;-122.946;2022-08-21T05:28:43;100884.90;;;20.26;56.21
55460;BME280;41326;45.302;-122.946;2022-08-21T05:31:14;100881.07;;;20.33;56.72
55460;BME280;41326;45.302;-122.946;2022-08-21T05:33:44;100883.49;;;20.34;57.47
55460;BME280;41326;45.302;-122.946;2022-08-21T05:36:16;100884.91;;;20.39;57.72
55460;BME280;41326;45.302;-122.946;2022-08-21T05:38:45;100887.99;;;20.50;57.69
55460;BME280;41326;45.302;-122.946;2022-08-21T05:41:14;100888.38;;;20.54;57.82
55460;BME280;41326;45.302;-122.946;2022-08-21T05:43:44;100888.10;;;20.57;57.87
55460;BME280;41326;45.302;-122.946;2022-08-21T05:46:15;100886.15;;;20.63;57.87
55460;BME280;41326;45.302;-122.946;2022-08-21T05:48:45;100884.36;;;20.72;57.72
55460;BME280;41326;45.302;-122.946;2022-08-21T05:51:16;100884.49;;;20.76;58.58
55460;BME280;41326;45.302;-122.946;2022-08-21T05:53:46;100886.74;;;20.76;58.72
55460;BME280;41326;45.302;-122.946;2022-08-21T05:56:16;100886.08;;;20.82;58.65
55460;BME280;41326;45.302;-122.946;2022-08-21T05:58:46;100885.49;;;20.83;58.76
55460;BME280;41326;45.302;-122.946;2022-08-21T06:01:16;100889.79;;;20.82;58.89
55460;BME280;41326;45.302;-122.946;2022-08-21T06:03:47;100889.45;;;20.88;58.77
55460;BME280;41326;45.302;-122.946;2022-08-21T06:06:16;100894.42;;;20.93;58.69
55460;BME280;41326;45.302;-122.946;2022-08-21T06:08:46;100897.32;;;20.95;58.73
55460;BME280;41326;45.302;-122.946;2022-08-21T06:11:17;100899.27;;;21.00;58.91
55460;BME280;41326;45.302;-122.946;2022-08-21T06:13:47;100898.08;;;20.97;59.60
55460;BME280;41326;45.302;-122.946;2022-08-21T06:16:19;100901.33;;;20.97;59.71
55460;BME280;41326;45.302;-122.946;2022-08-21T06:18:48;100900.66;;;20.95;59.83
55460;BME280;41326;45.302;-122.946;2022-08-21T06:21:18;100902.06;;;20.98;59.77
55460;BME280;41326;45.302;-122.946;2022-08-21T06:23:48;100904.08;;;21.02;59.67
55460;BME280;41326;45.302;-122.946;2022-08-21T06:26:20;100907.23;;;21.05;59.66
55460;BME280;41326;45.302;-122.946;2022-08-21T06:28:49;100907.86;;;21.07;59.68
55460;BME280;41326;45.302;-122.946;2022-08-21T06:31:21;100908.27;;;21.07;60.01
55460;BME280;41326;45.302;-122.946;2022-08-21T06:33:50;100907.37;;;21.05;60.43
55460;BME280;41326;45.302;-122.946;2022-08-21T06:36:20;100903.58;;;21.09;60.35
55460;BME280;41326;45.302;-122.946;2022-08-21T06:38:50;100903.39;;;21.08;60.48
55460;BME280;41326;45.302;-122.946;2022-08-21T06:41:20;100906.16;;;21.09;60.51
55460;BME280;41326;45.302;-122.946;2022-08-21T06:43:51;100909.30;;;21.12;60.49
55460;BME280;41326;45.302;-122.946;2022-08-21T06:46:22;100914.16;;;21.12;60.59
55460;BME280;41326;45.302;-122.946;2022-08-21T06:48:51;100920.84;;;21.13;60.68
55460;BME280;41326;45.302;-122.946;2022-08-21T06:51:21;100924.64;;;21.13;60.77
55460;BME280;41326;45.302;-122.946;2022-08-21T06:53:52;100924.33;;;21.13;60.97
55460;BME280;41326;45.302;-122.946;2022-08-21T06:56:22;100928.20;;;21.16;60.99
55460;BME280;41326;45.302;-122.946;2022-08-21T06:58:52;100931.58;;;21.15;61.13
55460;BME280;41326;45.302;-122.946;2022-08-21T07:01:28;100932.63;;;21.18;61.18
55460;BME280;41326;45.302;-122.946;2022-08-21T07:03:53;100932.56;;;21.18;61.24
55460;BME280;41326;45.302;-122.946;2022-08-21T07:06:24;100936.29;;;21.10;58.38
55460;BME280;41326;45.302;-122.946;2022-08-21T07:08:54;100936.75;;;20.86;56.80
55460;BME280;41326;45.302;-122.946;2022-08-21T07:11:25;100941.25;;;20.53;55.31
55460;BME280;41326;45.302;-122.946;2022-08-21T07:13:55;100945.39;;;20.30;56.31
55460;BME280;41326;45.302;-122.946;2022-08-21T07:16:25;100950.54;;;20.12;56.86
55460;BME280;41326;45.302;-122.946;2022-08-21T07:18:55;100951.84;;;19.92;56.19
55460;BME280;41326;45.302;-122.946;2022-08-21T07:21:25;100950.57;;;19.92;57.83
55460;BME280;41326;45.302;-122.946;2022-08-21T07:23:56;100949.79;;;20.12;58.51
55460;BME280;41326;45.302;-122.946;2022-08-21T07:26:27;100946.45;;;20.29;58.92
55460;BME280;41326;45.302;-122.946;2022-08-21T07:28:56;100946.72;;;20.40;58.75
55460;BME280;41326;45.302;-122.946;2022-08-21T07:31:27;100947.78;;;20.50;59.03
55460;BME280;41326;45.302;-122.946;2022-08-21T07:33:57;100947.03;;;20.60;59.32
55460;BME280;41326;45.302;-122.946;2022-08-21T07:36:27;100950.61;;;20.66;59.78
55460;BME280;41326;45.302;-122.946;2022-08-21T07:38:58;100951.53;;;20.69;60.14
55460;BME280;41326;45.302;-122.946;2022-08-21T07:42:47;100954.06;;;20.75;60.29
55460;BME280;41326;45.302;-122.946;2022-08-21T07:45:16;100950.81;;;20.78;60.32
55460;BME280;41326;45.302;-122.946;2022-08-21T07:47:48;100952.42;;;20.82;60.20
55460;BME280;41326;45.302;-122.946;2022-08-21T07:50:18;100955.24;;;20.79;60.40
55460;BME280;41326;45.302;-122.946;2022-08-21T07:52:48;100961.64;;;20.79;61.06
55460;BME280;41326;45.302;-122.946;2022-08-21T07:55:20;100963.49;;;20.82;61.45
55460;BME280;41326;45.302;-122.946;2022-08-21T07:57:48;100964.79;;;20.85;61.52
55460;BME280;41326;45.302;-122.946;2022-08-21T08:00:23;100967.29;;;20.86;61.89
55460;BME280;41326;45.302;-122.946;2022-08-21T08:02:50;100969.71;;;20.88;61.99
55460;BME280;41326;45.302;-122.946;2022-08-21T08:05:20;100973.67;;;20.89;62.20
55460;BME280;41326;45.302;-122.946;2022-08-21T08:07:49;100974.42;;;20.90;62.35
55460;BME280;41326;45.302;-122.946;2022-08-21T08:10:20;100974.12;;;20.86;62.47
55460;BME280;41326;45.302;-122.946;2022-08-21T08:12:50;100974.72;;;20.87;62.84
55460;BME280;41326;45.302;-122.946;2022-08-21T08:15:23;100971.90;;;20.88;63.04
55460;BME280;41326;45.302;-122.946;2022-08-21T08:17:51;100966.91;;;20.88;63.10
55460;BME280;41326;45.302;-122.946;2022-08-21T08:20:22;100968.25;;;20.88;63.17
55460;BME280;41326;45.302;-122.946;2022-08-21T08:22:52;100968.92;;;20.89;63.20
55460;BME280;41326;45.302;-122.946;2022-08-21T08:25:22;100970.89;;;20.91;63.22
55460;BME280;41326;45.302;-122.946;2022-08-21T08:27:52;100971.84;;;20.92;63.34
55460;BME280;41326;45.302;-122.946;2022-08-21T08:30:24;100971.39;;;20.92;63.37
55460;BME280;41326;45.302;-122.946;2022-08-21T08:32:53;100969.06;;;20.89;63.71
55460;BME280;41326;45.302;-122.946;2022-08-21T08:35:23;100969.72;;;20.89;63.93
55460;BME280;41326;45.302;-122.946;2022-08-21T08:37:53;100967.66;;;20.93;63.78
55460;BME280;41326;45.302;-122.946;2022-08-21T08:40:31;100969.82;;;20.95;63.75
55460;BME280;41326;45.302;-122.946;2022-08-21T08:42:54;100967.26;;;20.97;63.80
55460;BME280;41326;45.302;-122.946;2022-08-21T08:45:26;100968.63;;;20.96;63.89
55460;BME280;41326;45.302;-122.946;2022-08-21T08:47:59;100972.74;;;20.94;64.00
55460;BME280;41326;45.302;-122.946;2022-08-21T08:50:28;100969.66;;;20.93;64.07
55460;BME280;41326;45.302;-122.946;2022-08-21T08:53:02;100972.49;;;20.90;64.34
55460;BME280;41326;45.302;-122.946;2022-08-21T08:55:30;100977.38;;;20.92;64.41
55460;BME280;41326;45.302;-122.946;2022-08-21T08:57:57;100979.69;;;20.92;64.42
55460;BME280;41326;45.302;-122.946;2022-08-21T09:00:28;100981.63;;;20.89;64.46
55460;BME280;41326;45.302;-122.946;2022-08-21T09:02:59;100985.24;;;20.89;64.45
55460;BME280;41326;45.302;-122.946;2022-08-21T09:05:29;100986.51;;;20.89;64.42
55460;BME280;41326;45.302;-122.946;2022-08-21T09:10:35;100983.57;;;20.89;64.37
55460;BME280;41326;45.302;-122.946;2022-08-21T09:13:03;100983.81;;;20.85;64.54
55460;BME280;41326;45.302;-122.946;2022-08-21T09:15:33;100985.48;;;20.86;64.64
55460;BME280;41326;45.302;-122.946;2022-08-21T09:18:10;100988.35;;;20.82;64.77
55460;BME280;41326;45.302;-122.946;2022-08-21T09:20:36;100987.62;;;20.81;64.77
55460;BME280;41326;45.302;-122.946;2022-08-21T09:23:08;100987.32;;;20.81;64.74
55460;BME280;41326;45.302;-122.946;2022-08-21T09:25:32;100986.94;;;20.82;64.70
55460;BME280;41326;45.302;-122.946;2022-08-21T09:28:00;100991.76;;;20.82;64.72
55460;BME280;41326;45.302;-122.946;2022-08-21T09:30:32;100994.36;;;20.83;64.69
55460;BME280;41326;45.302;-122.946;2022-08-21T09:33:01;100995.54;;;20.83;64.69
55460;BME280;41326;45.302;-122.946;2022-08-21T09:35:31;100993.98;;;20.83;64.77
55460;BME280;41326;45.302;-122.946;2022-08-21T09:38:04;100993.32;;;20.83;64.79
55460;BME280;41326;45.302;-122.946;2022-08-21T09:40:37;100989.75;;;20.84;64.77
55460;BME280;41326;45.302;-122.946;2022-08-21T09:43:04;100991.75;;;20.86;64.67
55460;BME280;41326;45.302;-122.946;2022-08-21T09:45:33;100989.62;;;20.84;64.72
55460;BME280;41326;45.302;-122.946;2022-08-21T09:48:08;100990.77;;;20.87;64.55
55460;BME280;41326;45.302;-122.946;2022-08-21T09:50:33;100994.00;;;20.87;64.51
55460;BME280;41326;45.302;-122.946;2022-08-21T09:53:05;100995.35;;;20.86;64.59
55460;BME280;41326;45.302;-122.946;2022-08-21T09:55:38;100999.37;;;20.85;64.63
55460;BME280;41326;45.302;-122.946;2022-08-21T09:58:05;101000.82;;;20.85;64.60
55460;BME280;41326;45.302;-122.946;2022-08-21T10:00:36;101001.67;;;20.82;64.70
55460;BME280;41326;45.302;-122.946;2022-08-21T10:03:10;101001.37;;;20.81;64.69
55460;BME280;41326;45.302;-122.946;2022-08-21T10:05:36;100999.31;;;20.79;64.75
55460;BME280;41326;45.302;-122.946;2022-08-21T10:10:41;101005.27;;;20.79;64.76
55460;BME280;41326;45.302;-122.946;2022-08-21T10:13:13;101002.64;;;20.76;64.81
55460;BME280;41326;45.302;-122.946;2022-08-21T10:15:46;101001.80;;;20.74;64.87
55460;BME280;41326;45.302;-122.946;2022-08-21T10:18:15;101000.38;;;20.72;64.92
55460;BME280;41326;45.302;-122.946;2022-08-21T10:20:44;100999.35;;;20.72;64.90
55460;BME280;41326;45.302;-122.946;2022-08-21T10:23:26;101003.82;;;20.71;64.90
55460;BME280;41326;45.302;-122.946;2022-08-21T10:25:44;101005.19;;;20.71;64.96
55460;BME280;41326;45.302;-122.946;2022-08-21T10:28:16;101006.03;;;20.72;64.86
55460;BME280;41326;45.302;-122.946;2022-08-21T10:30:48;101008.10;;;20.70;64.93
55460;BME280;41326;45.302;-122.946;2022-08-21T10:33:22;101008.97;;;20.67;64.99
55460;BME280;41326;45.302;-122.946;2022-08-21T10:35:47;101008.37;;;20.68;65.02
55460;BME280;41326;45.302;-122.946;2022-08-21T10:40:48;101012.39;;;20.66;65.10
55460;BME280;41326;45.302;-122.946;2022-08-21T10:43:19;101011.62;;;20.66;65.12
55460;BME280;41326;45.302;-122.946;2022-08-21T10:45:52;101013.08;;;20.66;65.11
55460;BME280;41326;45.302;-122.946;2022-08-21T10:48:15;101019.53;;;20.65;65.15
55460;BME280;41326;45.302;-122.946;2022-08-21T10:50:47;101021.31;;;20.62;65.20
55460;BME280;41326;45.302;-122.946;2022-08-21T10:55:50;101025.31;;;20.60;65.26
55460;BME280;41326;45.302;-122.946;2022-08-21T10:58:18;101026.94;;;20.62;65.17
55460;BME280;41326;45.302;-122.946;2022-08-21T11:00:49;101026.92;;;20.61;65.19
55460;BME280;41326;45.302;-122.946;2022-08-21T11:03:17;101025.22;;;20.61;65.20
55460;BME280;41326;45.302;-122.946;2022-08-21T11:05:48;101028.15;;;20.58;65.32
55460;BME280;41326;45.302;-122.946;2022-08-21T11:08:18;101032.21;;;20.59;65.25
55460;BME280;41326;45.302;-122.946;2022-08-21T11:10:49;101031.81;;;20.57;65.30
55460;BME280;41326;45.302;-122.946;2022-08-21T11:13:21;101029.38;;;20.56;65.30
55460;BME280;41326;45.302;-122.946;2022-08-21T11:15:51;101027.73;;;20.58;65.29
55460;BME280;41326;45.302;-122.946;2022-08-21T11:18:23;101027.83;;;20.61;65.13
55460;BME280;41326;45.302;-122.946;2022-08-21T11:20:50;101029.30;;;20.60;65.12
55460;BME280;41326;45.302;-122.946;2022-08-21T11:23:21;101031.51;;;20.59;65.13
55460;BME280;41326;45.302;-122.946;2022-08-21T11:25:50;101030.83;;;20.58;65.12
55460;BME280;41326;45.302;-122.946;2022-08-21T11:28:22;101030.09;;;20.58;65.11
55460;BME280;41326;45.302;-122.946;2022-08-21T11:30:56;101028.39;;;20.57;65.14
55460;BME280;41326;45.302;-122.946;2022-08-21T11:33:29;101024.92;;;20.56;65.11
55460;BME280;41326;45.302;-122.946;2022-08-21T11:35:53;101021.96;;;20.58;64.99
55460;BME280;41326;45.302;-122.946;2022-08-21T11:38:27;101017.88;;;20.59;64.92
55460;BME280;41326;45.302;-122.946;2022-08-21T11:41:01;101020.38;;;20.59;64.89
55460;BME280;41326;45.302;-122.946;2022-08-21T11:43:24;101018.97;;;20.58;64.88
55460;BME280;41326;45.302;-122.946;2022-08-21T11:45:51;101021.81;;;20.58;64.80
55460;BME280;41326;45.302;-122.946;2022-08-21T11:48:32;101025.57;;;20.53;64.88
55460;BME280;41326;45.302;-122.946;2022-08-21T11:50:51;101030.27;;;20.50;64.91
55460;BME280;41326;45.302;-122.946;2022-08-21T11:53:24;101030.26;;;20.48;64.97
55460;BME280;41326;45.302;-122.946;2022-08-21T11:55:55;101030.08;;;20.46;64.96
55460;BME280;41326;45.302;-122.946;2022-08-21T11:58:25;101030.25;;;20.44;64.98
55460;BME280;41326;45.302;-122.946;2022-08-21T12:00:55;101031.01;;;20.43;64.91
55460;BME280;41326;45.302;-122.946;2022-08-21T12:03:29;101026.11;;;20.41;64.89
55460;BME280;41326;45.302;-122.946;2022-08-21T12:05:58;101022.45;;;20.39;64.95
55460;BME280;41326;45.302;-122.946;2022-08-21T12:08:28;101022.64;;;20.39;64.97
55460;BME280;41326;45.302;-122.946;2022-08-21T12:11:00;101019.21;;;20.39;64.97
55460;BME280;41326;45.302;-122.946;2022-08-21T12:13:28;101017.74;;;20.38;65.00
55460;BME280;41326;45.302;-122.946;2022-08-21T12:18:29;101017.73;;;20.38;64.93
55460;BME280;41326;45.302;-122.946;2022-08-21T12:21:01;101016.60;;;20.39;64.91
55460;BME280;41326;45.302;-122.946;2022-08-21T12:23:30;101020.33;;;20.37;64.92
55460;BME280;41326;45.302;-122.946;2022-08-21T12:26:02;101022.36;;;20.34;65.01
55460;BME280;41326;45.302;-122.946;2022-08-21T12:28:29;101022.01;;;20.32;65.06
55460;BME280;41326;45.302;-122.946;2022-08-21T12:30:57;101018.35;;;20.31;65.11
55460;BME280;41326;45.302;-122.946;2022-08-21T12:33:30;101020.36;;;20.31;65.11
55460;BME280;41326;45.302;-122.946;2022-08-21T12:36:02;101021.37;;;20.31;65.05
55460;BME280;41326;45.302;-122.946;2022-08-21T12:38:33;101023.94;;;20.32;64.96
55460;BME280;41326;45.302;-122.946;2022-08-21T12:41:01;101024.30;;;20.31;64.94
55460;BME280;41326;45.302;-122.946;2022-08-21T12:43:33;101026.09;;;20.32;64.86
55460;BME280;41326;45.302;-122.946;2022-08-21T12:45:59;101023.00;;;20.32;64.81
55460;BME280;41326;45.302;-122.946;2022-08-21T12:48:33;101022.28;;;20.31;64.83